createdAt,value
2019-03-13T00:00:24.692Z,139.33
2019-03-13T00:02:52.916Z,123.23
2019-03-13T00:05:21.076Z,88.00
2019-03-13T00:07:49.340Z,83.17
2019-03-13T00:10:18.080Z,79.83
2019-03-13T00:12:46.283Z,147.67
2019-03-13T00:15:14.665Z,121.43
2019-03-13T00:17:42.980Z,105.53
2019-03-13T00:20:11.238Z,102.77
2019-03-13T00:22:39.618Z,111.83
2019-03-13T00:25:08.288Z,113.60
2019-03-13T00:27:36.468Z,82.57
2019-03-13T00:30:05.558Z,87.40
2019-03-13T00:32:34.019Z,95.70
2019-03-13T00:35:02.308Z,99.33
2019-03-13T00:37:30.486Z,110.47
2019-03-13T00:39:58.891Z,92.40
2019-03-13T00:42:27.071Z,99.73
2019-03-13T00:44:55.285Z,95.07
2019-03-13T00:47:24.527Z,118.10
2019-03-13T00:49:52.677Z,152.80
2019-03-13T00:52:21.284Z,163.27
2019-03-13T00:54:49.461Z,143.10
2019-03-13T00:57:17.600Z,128.50
2019-03-13T00:59:45.971Z,117.63
2019-03-13T01:02:28.078Z,117.57
2019-03-13T01:05:04.163Z,98.20
2019-03-13T01:07:32.353Z,89.40
2019-03-13T01:10:01.104Z,82.20
2019-03-13T01:12:29.471Z,70.33
2019-03-13T01:14:57.619Z,74.77
2019-03-13T01:17:25.959Z,94.07
2019-03-13T01:19:54.172Z,105.37
2019-03-13T01:22:22.320Z,95.37
2019-03-13T01:24:50.665Z,86.63
2019-03-13T01:27:18.815Z,92.33
2019-03-13T01:29:46.989Z,88.30
2019-03-13T01:32:16.767Z,59.80
2019-03-13T01:34:52.201Z,55.47
2019-03-13T01:37:20.521Z,66.07
2019-03-13T01:39:48.709Z,63.80
2019-03-13T01:42:17.273Z,61.40
2019-03-13T01:44:45.449Z,70.23
2019-03-13T01:47:13.756Z,73.20
2019-03-13T01:49:42.965Z,55.47
2019-03-13T01:52:11.193Z,61.20
2019-03-13T01:54:39.346Z,60.63
2019-03-13T01:57:07.559Z,57.27
2019-03-13T01:59:35.740Z,39.73
2019-03-13T02:02:03.920Z,44.50
2019-03-13T02:04:32.166Z,50.83
2019-03-13T02:07:00.563Z,51.07
2019-03-13T02:09:28.698Z,54.17
2019-03-13T02:11:57.029Z,43.53
2019-03-13T02:14:25.202Z,43.73
2019-03-13T02:16:53.434Z,39.73
2019-03-13T02:19:21.610Z,14.40
2019-03-13T02:21:49.743Z,8.10
2019-03-13T02:24:18.285Z,5.33
2019-03-13T02:26:46.476Z,4.00
2019-03-13T02:29:14.649Z,3.53
2019-03-13T02:31:42.789Z,7.30
2019-03-13T02:34:11.043Z,4.70
2019-03-13T02:36:39.283Z,3.97
2019-03-13T02:39:07.540Z,4.03
2019-03-13T02:41:35.713Z,3.13
2019-03-13T02:44:03.941Z,3.47
2019-03-13T02:46:32.076Z,3.77
2019-03-13T02:49:00.298Z,5.17
2019-03-13T02:51:29.404Z,3.13
2019-03-13T02:53:57.586Z,3.93
2019-03-13T02:56:25.801Z,4.23
2019-03-13T02:58:53.945Z,3.60
2019-03-13T03:01:23.814Z,4.30
2019-03-13T03:03:53.730Z,3.43
2019-03-13T03:06:22.004Z,4.73
2019-03-13T03:08:50.179Z,3.57
2019-03-13T03:11:18.723Z,3.97
2019-03-13T03:13:47.140Z,3.00
2019-03-13T03:16:15.407Z,5.37
2019-03-13T03:18:43.788Z,4.83
2019-03-13T03:21:11.967Z,2.90
2019-03-13T03:23:44.864Z,3.40
2019-03-13T03:26:09.975Z,3.33
2019-03-13T03:28:38.347Z,2.77
2019-03-13T03:31:06.621Z,4.97
2019-03-13T03:33:34.894Z,4.20
2019-03-13T03:36:03.226Z,5.73
2019-03-13T03:38:31.356Z,11.93
2019-03-13T03:40:59.740Z,5.43
2019-03-13T03:43:39.965Z,6.20
2019-03-13T03:45:57.841Z,5.27
2019-03-13T03:48:26.071Z,5.13
2019-03-13T03:50:54.379Z,4.17
2019-03-13T03:53:23.434Z,3.73
2019-03-13T03:55:51.715Z,3.20
2019-03-13T03:58:19.891Z,3.20
2019-03-13T04:00:48.054Z,3.00
2019-03-13T04:03:17.303Z,4.43
2019-03-13T04:05:45.730Z,2.50
2019-03-13T04:08:13.925Z,3.50
2019-03-13T04:10:42.402Z,2.40
2019-03-13T04:13:10.530Z,5.20
2019-03-13T04:15:38.917Z,3.03
2019-03-13T04:18:07.535Z,3.40
2019-03-13T04:20:36.094Z,3.63
2019-03-13T04:23:04.674Z,2.70
2019-03-13T04:25:32.902Z,2.67
2019-03-13T04:28:01.040Z,3.13
2019-03-13T04:30:29.529Z,3.00
2019-03-13T04:32:58.025Z,3.10
2019-03-13T04:35:26.164Z,2.30
2019-03-13T04:37:54.326Z,3.93
2019-03-13T04:40:22.537Z,3.20
2019-03-13T04:42:50.776Z,3.40
2019-03-13T04:45:19.122Z,4.63
2019-03-13T04:47:47.475Z,10.40
2019-03-13T04:50:15.765Z,2.80
2019-03-13T04:52:44.127Z,3.03
2019-03-13T04:55:13.276Z,4.07
2019-03-13T04:57:42.161Z,3.43
2019-03-13T05:00:15.202Z,3.43
2019-03-13T05:02:43.529Z,3.90
2019-03-13T05:05:31.696Z,3.33
2019-03-13T05:08:00.118Z,2.57
2019-03-13T05:10:28.413Z,2.67
2019-03-13T05:12:56.616Z,2.67
2019-03-13T05:15:25.143Z,4.23
2019-03-13T05:17:53.287Z,2.80
2019-03-13T05:20:21.441Z,3.20
2019-03-13T05:22:49.845Z,3.27
2019-03-13T05:25:19.334Z,2.53
2019-03-13T05:27:47.987Z,3.13
2019-03-13T05:30:16.471Z,2.70
2019-03-13T05:32:44.861Z,3.20
2019-03-13T05:35:13.011Z,2.97
2019-03-13T05:37:41.212Z,3.73
2019-03-13T05:40:10.562Z,3.67
2019-03-13T05:42:38.720Z,13.30
2019-03-13T05:45:08.476Z,10.37
2019-03-13T05:47:37.092Z,7.37
2019-03-13T05:50:06.786Z,4.43
2019-03-13T05:52:35.041Z,4.27
2019-03-13T05:55:03.643Z,2.87
2019-03-13T05:57:32.782Z,2.40
2019-03-13T06:00:04.803Z,6.47
2019-03-13T06:02:33.026Z,5.37
2019-03-13T06:05:01.545Z,3.53
2019-03-13T06:07:29.916Z,2.97
2019-03-13T06:09:58.228Z,3.33
2019-03-13T06:12:26.781Z,3.83
2019-03-13T06:14:55.114Z,2.80
2019-03-13T06:17:23.416Z,3.33
2019-03-13T06:19:51.604Z,3.53
2019-03-13T06:22:19.796Z,6.00
2019-03-13T06:24:48.089Z,5.30
2019-03-13T06:27:16.534Z,2.47
2019-03-13T06:29:44.987Z,4.17
2019-03-13T06:32:13.446Z,3.83
2019-03-13T06:34:41.889Z,3.70
2019-03-13T06:37:10.069Z,5.80
2019-03-13T06:39:38.470Z,3.73
2019-03-13T06:42:07.064Z,3.77
2019-03-13T06:44:35.495Z,3.97
2019-03-13T06:47:03.805Z,4.53
2019-03-13T06:49:32.398Z,7.17
2019-03-13T06:52:00.898Z,8.33
2019-03-13T06:54:29.449Z,6.03
2019-03-13T06:56:57.819Z,7.70
2019-03-13T06:59:31.696Z,8.90
2019-03-13T07:02:04.570Z,5.87
2019-03-13T07:04:50.967Z,6.67
2019-03-13T07:07:29.935Z,5.57
2019-03-13T07:09:59.779Z,3.13
2019-03-13T07:12:32.736Z,4.33
2019-03-13T07:15:02.573Z,2.77
2019-03-13T07:17:32.577Z,4.23
2019-03-13T07:20:14.630Z,4.27
2019-03-13T07:22:44.590Z,7.23
2019-03-13T07:25:31.704Z,8.03
2019-03-13T07:28:07.728Z,2.77
2019-03-13T07:30:53.238Z,4.03
2019-03-13T07:33:26.173Z,2.93
2019-03-13T07:35:58.799Z,2.10
2019-03-13T07:38:37.908Z,2.47
2019-03-13T07:41:07.767Z,2.87
2019-03-13T07:43:47.269Z,2.40
2019-03-13T07:46:29.286Z,2.20
2019-03-13T07:49:15.704Z,2.27
2019-03-13T07:51:48.461Z,3.00
2019-03-13T07:54:34.979Z,2.50
2019-03-13T07:57:14.013Z,3.50
2019-03-13T07:59:43.996Z,2.37
2019-03-13T08:02:14.817Z,4.60
2019-03-13T08:04:51.227Z,9.97
2019-03-13T08:07:37.326Z,6.47
2019-03-13T08:10:09.004Z,3.43
2019-03-13T08:12:38.895Z,7.57
2019-03-13T08:15:16.046Z,4.10
2019-03-13T08:18:02.605Z,2.77
2019-03-13T08:20:44.577Z,5.53
2019-03-13T08:23:20.536Z,2.73
2019-03-13T08:25:50.378Z,3.17
2019-03-13T08:28:20.383Z,2.70
2019-03-13T08:30:50.203Z,4.97
2019-03-13T08:33:20.084Z,5.30
2019-03-13T08:36:06.457Z,3.37
2019-03-13T08:38:39.040Z,3.20
2019-03-13T08:44:14.631Z,1.97
2019-03-13T08:46:50.511Z,3.03
2019-03-13T08:49:37.148Z,2.87
2019-03-13T08:52:15.963Z,5.33
2019-03-13T08:54:57.838Z,5.57
2019-03-13T08:57:39.478Z,3.20
2019-03-13T09:33:12.945Z,3.43
2019-03-13T09:35:54.943Z,4.07
2019-03-13T09:38:27.671Z,3.07
2019-03-13T09:41:09.378Z,10.87
2019-03-13T09:43:42.223Z,5.03
2019-03-13T09:46:27.114Z,6.10
2019-03-13T09:49:00.632Z,7.80
2019-03-13T09:51:39.599Z,5.37
2019-03-13T09:54:09.483Z,2.73
2019-03-13T09:56:42.005Z,6.03
2019-03-13T09:59:42.364Z,3.57
2019-03-13T10:02:12.312Z,4.13
2019-03-13T10:04:47.734Z,5.13
2019-03-13T10:07:17.654Z,4.90
2019-03-13T10:09:50.767Z,7.63
2019-03-13T10:12:39.080Z,5.50
2019-03-13T10:15:11.594Z,4.87
2019-03-13T10:17:45.128Z,5.00
2019-03-13T10:20:15.338Z,6.90
2019-03-13T10:22:48.035Z,3.23
2019-03-13T10:25:18.269Z,3.20
2019-03-13T10:27:47.975Z,9.93
2019-03-13T10:30:20.600Z,4.33
2019-03-13T10:32:50.433Z,5.13
2019-03-13T10:35:33.005Z,4.37
2019-03-13T10:38:14.219Z,36.93
2019-03-13T10:40:55.661Z,10.57
2019-03-13T10:43:37.776Z,3.70
2019-03-13T10:46:10.453Z,5.77
2019-03-13T10:48:43.402Z,5.70
2019-03-13T10:51:13.657Z,4.87
2019-03-13T10:53:43.563Z,5.87
2019-03-13T10:56:13.671Z,4.53
2019-03-13T10:58:58.527Z,6.33
2019-03-13T11:01:34.511Z,8.90
2019-03-13T11:04:04.318Z,6.23
2019-03-13T11:06:54.891Z,9.77
2019-03-13T11:09:32.730Z,20.70
2019-03-13T11:12:02.847Z,5.37
2019-03-13T11:14:35.394Z,6.10
2019-03-13T11:17:08.038Z,7.93
2019-03-13T11:19:46.866Z,6.40
2019-03-13T11:22:33.337Z,8.93
2019-03-13T11:25:03.377Z,17.37
2019-03-13T11:27:51.570Z,8.73
2019-03-13T11:30:23.952Z,6.07
2019-03-13T11:33:02.793Z,7.47
2019-03-13T11:35:44.949Z,8.47
2019-03-13T11:38:20.763Z,12.50
2019-03-13T11:40:50.551Z,11.80
2019-03-13T11:43:41.181Z,12.47
2019-03-13T11:46:13.166Z,11.40
2019-03-13T11:48:45.979Z,7.10
2019-03-13T11:51:15.767Z,7.97
2019-03-13T11:53:48.593Z,6.50
2019-03-13T11:56:18.485Z,5.30
2019-03-13T11:58:50.847Z,4.87
2019-03-13T12:01:26.539Z,5.40
2019-03-13T12:03:56.431Z,5.17
2019-03-13T12:06:33.048Z,4.53
2019-03-13T12:09:03.801Z,5.13
2019-03-13T12:11:49.805Z,7.83
2019-03-13T12:14:34.647Z,4.40
2019-03-13T12:17:04.582Z,3.70
2019-03-13T12:19:49.452Z,4.57
2019-03-13T12:22:36.003Z,10.13
2019-03-13T12:25:22.693Z,7.50
2019-03-13T12:27:52.724Z,8.53
2019-03-13T12:30:38.946Z,10.43
2019-03-13T12:33:08.752Z,4.73
2019-03-13T12:35:38.624Z,4.60
2019-03-13T12:38:25.261Z,4.90
2019-03-13T12:41:04.075Z,4.00
2019-03-13T12:43:33.939Z,5.10
2019-03-13T12:46:15.737Z,8.57
2019-03-13T12:48:54.585Z,9.07
2019-03-13T12:51:40.739Z,4.60
2019-03-13T12:54:28.958Z,16.97
2019-03-13T12:57:13.771Z,12.37
2019-03-13T12:59:46.350Z,13.40
2019-03-13T13:02:33.190Z,7.50
2019-03-13T13:05:19.406Z,5.63
2019-03-13T13:08:05.245Z,8.47
2019-03-13T13:10:41.089Z,10.30
2019-03-13T13:13:11.021Z,4.77
2019-03-13T13:15:40.791Z,6.47
2019-03-13T13:18:13.822Z,4.90
2019-03-13T13:20:42.069Z,6.40
2019-03-13T13:23:10.874Z,6.40
2019-03-13T13:25:39.323Z,4.53
2019-03-13T13:28:07.517Z,5.17
2019-03-13T13:30:35.657Z,5.83
2019-03-13T13:33:04.117Z,6.43
2019-03-13T13:35:32.254Z,7.23
2019-03-13T13:38:00.407Z,4.50
2019-03-13T13:40:28.693Z,5.07
2019-03-13T13:42:57.037Z,5.12
2019-03-13T13:45:26.894Z,4.80
2019-03-13T13:47:55.592Z,3.40
2019-03-13T13:50:23.774Z,26.83
2019-03-13T13:52:52.143Z,8.63
2019-03-13T13:55:20.705Z,5.63
2019-03-13T13:57:49.258Z,9.30
2019-03-13T14:00:17.788Z,5.37
2019-03-13T14:02:46.270Z,7.57
2019-03-13T14:05:14.399Z,8.93
2019-03-13T14:07:42.595Z,5.40
2019-03-13T14:10:11.791Z,12.33
2019-03-13T14:12:40.155Z,7.03
2019-03-13T14:15:09.701Z,8.57
2019-03-13T14:17:38.055Z,4.30
2019-03-13T14:20:07.817Z,7.10
2019-03-13T14:22:36.142Z,6.73
2019-03-13T14:25:05.425Z,7.47
2019-03-13T14:27:33.804Z,6.53
2019-03-13T14:30:01.991Z,4.00
2019-03-13T14:32:30.261Z,5.00
2019-03-13T14:34:58.717Z,13.23
2019-03-13T14:37:26.914Z,10.30
2019-03-13T14:39:55.189Z,15.77
2019-03-13T14:42:23.421Z,6.00
2019-03-13T14:44:51.737Z,4.03
2019-03-13T14:47:19.947Z,3.90
2019-03-13T14:49:48.206Z,6.33
2019-03-13T14:52:16.632Z,3.77
2019-03-13T14:54:44.900Z,4.70
2019-03-13T14:57:13.237Z,4.80
2019-03-13T14:59:41.920Z,3.63
2019-03-13T15:02:10.185Z,4.10
2019-03-13T15:04:38.458Z,3.40
2019-03-13T15:07:06.927Z,4.97
2019-03-13T15:09:35.228Z,4.20
2019-03-13T15:12:03.340Z,6.70
2019-03-13T15:14:31.900Z,7.03
2019-03-13T15:17:00.041Z,10.17
2019-03-13T15:19:28.241Z,21.80
2019-03-13T15:21:56.600Z,7.50
2019-03-13T15:24:24.933Z,3.63
2019-03-13T15:26:53.490Z,9.93
2019-03-13T15:29:21.677Z,18.60
2019-03-13T15:31:49.990Z,8.27
2019-03-13T15:34:18.160Z,9.07
2019-03-13T15:36:46.546Z,9.47
2019-03-13T15:39:14.907Z,13.40
2019-03-13T15:41:43.155Z,34.17
2019-03-13T15:44:11.385Z,9.93
2019-03-13T15:46:40.163Z,10.37
2019-03-13T15:49:08.395Z,13.43
2019-03-13T15:51:38.819Z,28.57
2019-03-13T15:54:06.509Z,11.33
2019-03-13T15:56:34.908Z,11.00
2019-03-13T15:59:03.050Z,26.67
2019-03-13T16:01:31.549Z,16.13
2019-03-13T16:03:59.800Z,13.30
2019-03-13T16:06:27.962Z,21.37
2019-03-13T16:08:56.291Z,20.97
2019-03-13T16:11:24.652Z,24.13
2019-03-13T16:13:53.272Z,22.27
2019-03-13T16:16:21.744Z,14.40
2019-03-13T16:18:49.910Z,24.27
2019-03-13T16:21:18.057Z,25.10
2019-03-13T16:23:46.886Z,24.27
2019-03-13T16:26:15.137Z,16.93
2019-03-13T16:28:43.722Z,25.60
2019-03-13T16:31:12.479Z,27.60
2019-03-13T16:33:42.774Z,32.17
2019-03-13T16:36:19.392Z,80.77
2019-03-13T16:38:51.150Z,101.37
2019-03-13T16:41:19.850Z,95.80
2019-03-13T16:43:48.108Z,40.77
2019-03-13T16:46:16.590Z,38.50
2019-03-13T16:48:45.623Z,35.87
2019-03-13T16:51:13.829Z,41.70
2019-03-13T16:53:42.539Z,34.20
2019-03-13T16:56:10.822Z,37.10
2019-03-13T16:58:40.019Z,34.87
2019-03-13T17:01:08.172Z,30.80
2019-03-13T17:03:36.543Z,18.60
2019-03-13T17:06:05.537Z,55.40
2019-03-13T17:08:34.923Z,48.50
2019-03-13T17:11:03.225Z,33.03
2019-03-13T17:13:32.461Z,42.87
2019-03-13T17:16:03.259Z,63.17
2019-03-13T17:18:32.249Z,143.43
2019-03-13T17:21:01.319Z,91.37
2019-03-13T17:23:31.025Z,97.40
2019-03-13T17:26:02.471Z,72.63
2019-03-13T17:28:30.780Z,75.27
2019-03-13T17:31:00.190Z,112.50
2019-03-13T17:33:32.665Z,58.00
2019-03-13T17:36:01.551Z,67.30
2019-03-13T17:38:29.975Z,27.97
2019-03-13T17:40:58.723Z,26.47
2019-03-13T17:43:38.391Z,27.20
2019-03-13T17:45:57.824Z,48.73
2019-03-13T17:48:26.063Z,58.33
2019-03-13T17:50:54.408Z,85.17
2019-03-13T17:53:23.066Z,86.73
2019-03-13T17:55:51.435Z,135.30
2019-03-13T17:58:22.668Z,167.60
2019-03-13T18:00:54.123Z,194.50
2019-03-13T18:03:23.632Z,227.40
2019-03-13T18:05:52.645Z,174.57
2019-03-13T18:08:23.772Z,204.90
2019-03-13T18:10:53.103Z,201.40
2019-03-13T18:13:25.877Z,103.33
2019-03-13T18:15:54.602Z,210.20
2019-03-13T18:18:23.931Z,156.63
2019-03-13T18:20:54.076Z,134.50
2019-03-13T18:23:22.423Z,124.33
2019-03-13T18:25:50.679Z,116.73
2019-03-13T18:28:19.003Z,177.07
2019-03-13T18:30:48.124Z,138.87
2019-03-13T18:33:17.277Z,130.50
2019-03-13T18:35:45.625Z,135.43
2019-03-13T18:38:14.434Z,188.27
2019-03-13T18:40:42.644Z,196.97
2019-03-13T18:43:11.060Z,184.37
2019-03-13T18:45:39.636Z,241.47
2019-03-13T18:48:08.039Z,238.87
2019-03-13T18:50:36.426Z,324.20
2019-03-13T18:53:04.935Z,242.93
2019-03-13T18:55:33.856Z,219.63
2019-03-13T18:58:02.152Z,186.63
2019-03-13T19:00:34.140Z,140.07
2019-03-13T19:03:02.825Z,148.93
2019-03-13T19:05:32.161Z,130.93
2019-03-13T19:08:00.601Z,136.23
2019-03-13T19:10:30.327Z,164.13
2019-03-13T19:12:58.886Z,211.17
2019-03-13T19:15:27.984Z,128.70
2019-03-13T19:17:56.673Z,115.63
2019-03-13T19:20:25.818Z,120.30
2019-03-13T19:22:54.871Z,127.13
2019-03-13T19:25:24.318Z,110.60
2019-03-13T19:27:52.656Z,103.97
2019-03-13T19:30:22.599Z,109.70
2019-03-13T19:32:51.309Z,34.73
2019-03-13T19:35:19.694Z,24.20
2019-03-13T19:37:48.192Z,17.20
2019-03-13T19:40:17.473Z,93.40
2019-03-13T19:42:45.620Z,39.17
2019-03-13T19:45:15.355Z,100.20
2019-03-13T19:47:43.694Z,55.27
2019-03-13T19:50:13.244Z,47.17
2019-03-13T19:52:41.399Z,40.13
2019-03-13T19:55:11.112Z,19.93
2019-03-13T19:57:41.012Z,12.53
2019-03-13T20:00:14.615Z,13.40
2019-03-13T20:02:59.465Z,9.53
2019-03-13T20:05:17.471Z,9.87
2019-03-13T20:07:45.771Z,7.63
2019-03-13T20:10:15.686Z,10.53
2019-03-13T20:12:50.672Z,13.10
2019-03-13T20:15:20.045Z,13.47
2019-03-13T20:17:48.224Z,16.77
2019-03-13T20:20:18.135Z,14.40
2019-03-13T20:22:46.790Z,16.87
2019-03-13T20:25:17.633Z,16.83
2019-03-13T20:27:45.699Z,17.97
2019-03-13T20:30:15.058Z,15.93
2019-03-13T20:32:49.320Z,19.13
2019-03-13T20:35:29.806Z,23.83
2019-03-13T20:37:59.020Z,21.10
2019-03-13T20:40:27.820Z,17.80
2019-03-13T20:42:57.202Z,19.90
2019-03-13T20:45:26.214Z,17.47
2019-03-13T20:47:57.275Z,22.80
2019-03-13T20:50:36.650Z,25.67
2019-03-13T20:52:56.750Z,20.87
2019-03-13T20:55:25.242Z,18.93
2019-03-13T20:57:53.599Z,17.77
2019-03-13T21:00:25.135Z,17.30
2019-03-13T21:02:53.826Z,17.23
2019-03-13T21:05:22.154Z,19.50
2019-03-13T21:07:50.263Z,16.47
2019-03-13T21:10:18.639Z,17.10
2019-03-13T21:12:46.928Z,17.60
2019-03-13T21:15:19.734Z,14.30
2019-03-13T21:17:48.412Z,17.37
2019-03-13T21:20:17.319Z,37.87
2019-03-13T21:22:45.472Z,13.70
2019-03-13T21:25:17.341Z,20.77
2019-03-13T21:27:47.659Z,15.70
2019-03-13T21:30:16.919Z,10.43
2019-03-13T21:32:45.193Z,10.90
2019-03-13T21:35:13.918Z,12.77
2019-03-13T21:37:42.040Z,7.93
2019-03-13T21:40:11.448Z,7.07
2019-03-13T21:42:39.773Z,7.63
2019-03-13T21:45:21.215Z,8.17
2019-03-13T21:47:40.050Z,7.87
2019-03-13T21:50:10.006Z,9.10
2019-03-13T21:52:38.398Z,7.70
2019-03-13T21:55:07.481Z,9.13
2019-03-13T21:57:35.663Z,11.23
2019-03-13T22:00:05.466Z,10.43
2019-03-13T22:02:36.469Z,8.33
2019-03-13T22:05:04.330Z,8.13
2019-03-13T22:07:32.596Z,7.67
2019-03-13T22:10:00.951Z,9.93
2019-03-13T22:12:29.330Z,9.93
2019-03-13T22:14:57.788Z,8.00
2019-03-13T22:17:26.277Z,9.40
2019-03-13T22:19:56.244Z,8.47
2019-03-13T22:22:24.443Z,8.30
2019-03-13T22:24:52.720Z,8.90
2019-03-13T22:27:20.913Z,9.30
2019-03-13T22:29:49.180Z,8.20
2019-03-13T22:32:17.587Z,8.57
2019-03-13T22:34:46.033Z,6.80
2019-03-13T22:37:14.519Z,8.10
2019-03-13T22:39:42.991Z,7.13
2019-03-13T22:42:11.126Z,6.20
2019-03-13T22:44:39.438Z,7.37
2019-03-13T22:47:07.823Z,7.00
2019-03-13T22:49:36.012Z,7.47
2019-03-13T22:52:04.584Z,7.13
2019-03-13T22:54:32.685Z,7.30
2019-03-13T22:57:00.836Z,6.87
2019-03-13T22:59:29.200Z,6.73
2019-03-13T23:01:57.509Z,7.10
2019-03-13T23:04:25.721Z,5.83
2019-03-13T23:06:54.025Z,8.27
2019-03-13T23:09:22.457Z,5.97
2019-03-13T23:11:50.601Z,6.03
2019-03-13T23:14:18.911Z,4.90
2019-03-13T23:16:47.518Z,5.83
2019-03-13T23:19:17.571Z,5.57
2019-03-13T23:21:45.776Z,7.13
2019-03-13T23:24:14.027Z,7.37
2019-03-13T23:26:42.554Z,7.60
2019-03-13T23:29:10.696Z,10.10
2019-03-13T23:31:38.881Z,9.80
2019-03-13T23:34:07.137Z,11.13
2019-03-13T23:36:35.355Z,11.17
2019-03-13T23:39:04.079Z,8.00
2019-03-13T23:41:32.514Z,6.47
2019-03-13T23:44:01.017Z,5.23
2019-03-13T23:46:29.919Z,5.47
2019-03-13T23:48:58.072Z,7.70
2019-03-13T23:51:26.402Z,6.07
2019-03-13T23:53:54.937Z,6.97
2019-03-13T23:56:23.224Z,14.33
2019-03-13T23:58:51.473Z,8.73
